PANO2: Poteau River At Panama

Data processed at Fri Dec 08 2017 23:32


All information presented herein is the property of the government of the United States of America and may be revised or deleted at any time without prior notice.
Dissemination of this information without the expressed written consent of the Public Affairs Office, Tulsa District U.S. Army Corps of Engineers is strictly prohibited.
These data are gathered electronically and, as presented, have not undergone any form of quality control. These data are not guaranteed to be valid or correct.
Go to home page.
Go to station list.

Upstream stations:

Downstream station:
Previous Day
Next Day
Current Day
    
SHEF ID:       PANO2     Poteau River near Panama, OK
STATION TYPE:  

               PRECIP     STAGE  RIV-FLOW  BAT-LOAD
                   in        ft       cfs      volt
              Ccp-Rev   Ccp-Rev   Ccp-Rev   Ccp-Rev
(US/Central)
12/06 00:00      0.00      5.81        84     12.73
12/06 01:00      0.00      5.87        92     12.73
12/06 02:00      0.00      5.94       100     12.65
12/06 03:00      0.00      6.00       108     12.65
12/06 04:00      0.00      6.06       116     12.65
12/06 05:00      0.00      6.12       124     12.65
12/06 06:00      0.00      6.18       132     12.65
12/06 07:00      0.00      6.24       141     12.65
12/06 08:00      0.00      6.29       149     12.65
12/06 09:00      0.00      6.35       158     12.65
12/06 10:00      0.00      6.44       172     12.81
12/06 11:00      0.00      6.56       191     13.05
12/06 12:00      0.29      6.70       214     13.05
12/06 13:00      0.37      6.85       241     13.29
12/06 14:00      0.00      7.02       272     13.44
12/06 15:00      0.00      7.17       301     13.37
12/06 16:00      0.00      7.32       331     13.21
12/06 17:00      0.00      7.43       354     13.05
12/06 18:00      0.00      7.50       368     12.97
12/06 19:00      0.00      7.55       378     12.89
12/06 20:00      0.00      7.58       384     12.89
12/06 21:00      0.00      7.59       386     12.81
12/06 22:00      0.00      7.60       388     12.81
12/06 23:00      0.00      7.60       388     12.73